Time;durP1;ratioP1;P1;durP2;ratioP2;P2;SDS_P1;SDS_P2;PMS_P1;PMS_P2;Temp;Humidity;BMP_temperature;BMP_pressure;BME280_temperature;BME280_humidity;BME280_pressure;Samples;Min_cycle;Max_cycle;Signal;HPM_P1;HPM_P2
2022/09/25 00:02:48;;;;;;;23.13;9.93;;;14.00;1.00;;;;;;5036676;28;20949;-87
2022/09/25 00:05:29;;;;;;;16.40;9.37;;;14.10;1.00;;;;;;5036930;28;20402;-87
2022/09/25 00:08:00;;;;;;;16.53;9.77;;;14.00;1.00;;;;;;5050019;28;20263;-78
2022/09/25 00:11:03;;;;;;;16.60;9.40;;;14.00;1.00;;;;;;5035010;28;20431;-78
2022/09/25 00:13:47;;;;;;;12.07;8.80;;;14.00;1.00;;;;;;5047035;28;20410;-78
2022/09/25 00:19:50;;;;;;;14.40;9.00;;;14.00;1.00;;;;;;5049255;28;20920;-78
2022/09/25 00:22:29;;;;;;;16.37;9.47;;;14.00;1.00;;;;;;5035527;28;20777;-77
2022/09/25 00:25:19;;;;;;;19.10;8.60;;;14.00;1.00;;;;;;5041885;28;20955;-78
2022/09/25 00:27:54;;;;;;;14.20;8.40;;;14.00;1.00;;;;;;5045008;28;20434;-78
2022/09/25 00:30:20;;;;;;;17.37;9.20;;;13.90;1.00;;;;;;5051021;28;20411;-78
2022/09/25 00:32:46;;;;;;;18.47;9.50;;;14.00;1.00;;;;;;5038215;28;20430;-78
2022/09/25 00:35:12;;;;;;;21.63;10.53;;;14.00;1.00;;;;;;5043345;28;20250;-78
2022/09/25 00:37:41;;;;;;;20.57;11.03;;;14.00;1.00;;;;;;5055089;28;20180;-79
2022/09/25 00:40:18;;;;;;;16.70;10.53;;;13.90;1.00;;;;;;5044598;28;20261;-78
2022/09/25 00:43:00;;;;;;;19.53;10.67;;;14.00;1.00;;;;;;5053154;28;20432;-78
2022/09/25 00:45:47;;;;;;;20.00;10.43;;;14.00;1.00;;;;;;5046598;28;20414;-78
2022/09/25 00:48:47;;;;;;;19.57;10.50;;;14.00;1.00;;;;;;5050742;28;20430;-77
2022/09/25 00:51:59;;;;;;;20.67;11.20;;;14.00;1.00;;;;;;5050984;28;20437;-87
2022/09/25 00:55:02;;;;;;;22.77;12.30;;;14.00;1.00;;;;;;5035069;28;20439;-87
2022/09/25 00:58:23;;;;;;;22.40;11.60;;;14.00;1.00;;;;;;5034203;28;20441;-87
2022/09/25 01:08:24;;;;;;;18.37;9.50;;;14.00;1.00;;;;;;5038983;28;20426;-78
2022/09/25 01:10:50;;;;;;;22.87;10.30;;;14.00;1.00;;;;;;5047773;28;20437;-78
2022/09/25 01:13:59;;;;;;;25.40;10.97;;;14.00;1.00;;;;;;5052455;28;20416;-78
2022/09/25 01:16:53;;;;;;;25.23;10.07;;;14.00;1.00;;;;;;5049645;28;20194;-78
2022/09/25 01:20:09;;;;;;;21.70;10.00;;;14.00;1.00;;;;;;5053665;28;20434;-78
2022/09/25 01:22:37;;;;;;;18.87;10.93;;;13.90;1.00;;;;;;5015078;28;20523;-78
2022/09/25 01:28:59;;;;;;;18.77;10.07;;;13.90;1.00;;;;;;5017154;28;20441;-78
2022/09/25 01:31:55;;;;;;;20.50;10.70;;;14.00;1.00;;;;;;5006368;28;20444;-78
2022/09/25 01:34:48;;;;;;;22.67;11.57;;;13.90;1.00;;;;;;5005054;28;20531;-77
2022/09/25 01:37:28;;;;;;;29.20;11.33;;;13.90;1.00;;;;;;5012231;28;20527;-79
2022/09/25 01:40:14;;;;;;;24.33;11.27;;;13.90;1.00;;;;;;4996151;28;20460;-79
2022/09/25 01:43:30;;;;;;;28.80;10.73;;;13.90;1.00;;;;;;5017690;28;20419;-78
2022/09/25 01:46:33;;;;;;;19.37;9.90;;;13.90;1.00;;;;;;5011718;28;20523;-78
2022/09/25 01:52:52;;;;;;;24.30;11.23;;;13.90;1.00;;;;;;5022394;28;20433;-88
2022/09/25 01:59:29;;;;;;;28.83;13.60;;;13.90;1.00;;;;;;4935709;28;20437;-87
2022/09/25 02:02:31;;;;;;;25.33;13.10;;;14.00;1.00;;;;;;4952915;28;20411;-88
2022/09/25 02:05:03;;;;;;;30.27;12.10;;;14.00;1.00;;;;;;4954415;28;20400;-88
2022/09/25 02:11:01;;;;;;;23.13;12.57;;;14.00;1.00;;;;;;4955003;28;20429;-78
2022/09/25 02:13:37;;;;;;;30.10;13.60;;;14.00;1.00;;;;;;4991517;28;20955;-78
2022/09/25 02:16:15;;;;;;;27.00;12.40;;;14.00;1.00;;;;;;4991761;28;20432;-78
2022/09/25 02:25:36;;;;;;;24.47;11.30;;;14.00;1.00;;;;;;4973452;28;20467;-88
2022/09/25 02:32:04;;;;;;;20.60;11.63;;;14.00;1.00;;;;;;4995467;28;20377;-88
2022/09/25 02:41:48;;;;;;;25.17;11.53;;;14.00;1.00;;;;;;5039198;28;20428;-88
2022/09/25 02:45:11;;;;;;;21.20;11.00;;;14.00;1.00;;;;;;5052633;28;20895;-88
2022/09/25 02:48:05;;;;;;;26.13;12.10;;;14.00;1.00;;;;;;4980243;28;20420;-88
2022/09/25 02:57:35;;;;;;;26.60;11.97;;;13.90;1.00;;;;;;5004287;28;20411;-78
2022/09/25 03:00:12;;;;;;;27.97;12.03;;;13.90;1.00;;;;;;4994815;28;20547;-78
2022/09/25 03:03:07;;;;;;;31.83;12.93;;;14.00;1.00;;;;;;4994384;28;20458;-78
2022/09/25 03:05:37;;;;;;;21.50;10.97;;;13.90;1.00;;;;;;4994478;28;20426;-77
2022/09/25 03:08:38;;;;;;;19.60;11.20;;;13.90;1.00;;;;;;4992311;28;20407;-78
2022/09/25 03:11:20;;;;;;;23.30;11.20;;;13.90;1.00;;;;;;4994045;28;21052;-78
2022/09/25 03:14:02;;;;;;;24.17;12.13;;;13.90;1.00;;;;;;5004092;28;20428;-78
2022/09/25 03:17:02;;;;;;;27.13;11.20;;;13.90;1.00;;;;;;4994293;28;20445;-78
2022/09/25 03:23:30;;;;;;;28.83;11.63;;;13.90;1.00;;;;;;5048791;28;20422;-88
2022/09/25 03:26:00;;;;;;;25.73;11.67;;;13.90;1.00;;;;;;5042229;28;20427;-88
2022/09/25 03:31:48;;;;;;;23.73;11.37;;;13.90;1.00;;;;;;5052478;28;20467;-88
2022/09/25 03:34:59;;;;;;;29.00;13.77;;;13.80;1.00;;;;;;5055215;28;20425;-88
2022/09/25 03:37:59;;;;;;;24.23;12.93;;;13.80;1.00;;;;;;5035653;28;20396;-88
2022/09/25 03:41:00;;;;;;;28.10;12.90;;;13.90;1.00;;;;;;5050897;28;20433;-87
2022/09/25 03:43:32;;;;;;;26.97;14.27;;;13.90;1.00;;;;;;5045269;28;20423;-88
2022/09/25 03:46:30;;;;;;;38.50;14.30;;;13.90;1.00;;;;;;5051506;28;20485;-87
2022/09/25 03:49:29;;;;;;;28.37;14.97;;;13.90;1.00;;;;;;5051403;28;20624;-88
2022/09/25 03:52:29;;;;;;;35.90;16.20;;;13.90;1.00;;;;;;5041784;28;20510;-88
2022/09/25 03:55:29;;;;;;;33.10;17.70;;;13.90;1.00;;;;;;5046190;28;20415;-78
2022/09/25 03:58:00;;;;;;;38.40;19.50;;;13.90;1.00;;;;;;5045611;28;20430;-78
2022/09/25 04:00:36;;;;;;;38.97;19.70;;;14.00;1.00;;;;;;5053626;28;20516;-78
2022/09/25 04:03:18;;;;;;;42.33;19.50;;;14.00;1.00;;;;;;5051810;28;20426;-78
2022/09/25 04:06:06;;;;;;;40.20;19.73;;;14.00;1.00;;;;;;5044579;28;20515;-78
2022/09/25 04:08:48;;;;;;;44.70;18.10;;;14.00;1.00;;;;;;5051463;28;20414;-88
2022/09/25 04:11:19;;;;;;;33.03;17.40;;;14.00;1.00;;;;;;5054671;28;20750;-87
2022/09/25 04:14:00;;;;;;;37.00;18.30;;;14.00;1.00;;;;;;5046304;28;20432;-88
2022/09/25 04:20:00;;;;;;;56.57;19.47;;;14.00;1.00;;;;;;5051766;28;20477;-88
2022/09/25 04:23:00;;;;;;;41.73;19.43;;;14.00;1.00;;;;;;5036678;28;20469;-88
2022/09/25 04:25:53;;;;;;;38.80;18.40;;;13.90;1.00;;;;;;5037195;28;20964;-78
2022/09/25 04:34:57;;;;;;;36.27;17.73;;;13.90;1.00;;;;;;5037785;28;20520;-78
2022/09/25 04:41:00;;;;;;;39.67;17.67;;;13.90;1.00;;;;;;5039541;28;20529;-89
2022/09/25 04:44:03;;;;;;;40.77;18.07;;;13.90;1.00;;;;;;5045985;28;20502;-89
2022/09/25 04:46:30;;;;;;;36.60;19.00;;;13.90;1.00;;;;;;5053647;28;20422;-88
2022/09/25 04:48:55;;;;;;;36.50;19.90;;;14.00;1.00;;;;;;5041667;28;20523;-87
2022/09/25 04:51:24;;;;;;;38.13;19.90;;;14.00;1.00;;;;;;5053791;28;20401;-88
2022/09/25 04:53:55;;;;;;;38.57;19.97;;;13.90;1.00;;;;;;5051136;28;20176;-78
2022/09/25 04:56:47;;;;;;;39.27;20.67;;;13.90;1.00;;;;;;5044507;28;20946;-78
2022/09/25 04:59:15;;;;;;;39.90;19.83;;;13.90;1.00;;;;;;5044834;28;20454;-79
2022/09/25 05:01:42;;;;;;;40.40;20.23;;;14.00;1.00;;;;;;5052418;28;20438;-78
2022/09/25 05:04:29;;;;;;;35.50;18.13;;;14.00;1.00;;;;;;5047629;28;20404;-78
2022/09/25 05:07:29;;;;;;;27.00;15.17;;;14.00;1.00;;;;;;5052991;28;20396;-78
2022/09/25 05:10:00;;;;;;;44.70;18.13;;;14.00;1.00;;;;;;5051561;28;20416;-78
2022/09/25 05:13:00;;;;;;;31.47;16.83;;;14.00;1.00;;;;;;5044797;28;20414;-78
2022/09/25 05:15:36;;;;;;;32.10;16.70;;;14.00;1.00;;;;;;5036759;28;20474;-78
2022/09/25 05:18:20;;;;;;;29.73;17.23;;;14.10;1.00;;;;;;5046657;28;20948;-78
2022/09/25 05:21:05;;;;;;;47.70;18.73;;;14.10;1.00;;;;;;5041694;28;20995;-78
2022/09/25 05:24:12;;;;;;;31.10;18.23;;;14.10;1.00;;;;;;5042722;28;20402;-79
2022/09/25 05:30:24;;;;;;;38.70;18.77;;;14.10;1.00;;;;;;5039140;28;20463;-90
2022/09/25 05:33:00;;;;;;;31.67;18.47;;;14.10;1.00;;;;;;5052951;28;20434;-84
2022/09/25 05:36:00;;;;;;;32.97;17.27;;;14.20;1.00;;;;;;5052885;28;20587;-84
2022/09/25 05:39:00;;;;;;;38.77;17.87;;;14.20;1.00;;;;;;5049580;28;20757;-84
2022/09/25 05:42:12;;;;;;;32.47;17.97;;;14.20;1.00;;;;;;5049133;28;21114;-83
2022/09/25 05:48:01;;;;;;;33.43;17.70;;;14.20;1.00;;;;;;5035546;28;20914;-84
2022/09/25 05:51:05;;;;;;;33.23;17.80;;;14.20;1.00;;;;;;5039788;28;20400;-84
2022/09/25 05:53:59;;;;;;;30.20;17.77;;;14.30;1.00;;;;;;5052781;28;20483;-84
2022/09/25 05:56:53;;;;;;;38.23;17.97;;;14.30;1.00;;;;;;5037713;28;20489;-79
2022/09/25 06:00:06;;;;;;;29.10;17.20;;;14.30;1.00;;;;;;5050423;28;21010;-78
2022/09/25 06:03:00;;;;;;;32.40;17.50;;;14.30;1.00;;;;;;5043347;28;20401;-78
2022/09/25 06:05:48;;;;;;;33.47;16.80;;;14.30;1.00;;;;;;5052643;28;20349;-78
2022/09/25 06:18:59;;;;;;;33.63;16.30;;;14.40;1.00;;;;;;5033487;28;20427;-84
2022/09/25 06:21:59;;;;;;;40.33;17.70;;;14.40;1.00;;;;;;5043908;28;20453;-84
2022/09/25 06:27:47;;;;;;;26.77;16.43;;;14.40;1.00;;;;;;5034948;28;20548;-83
2022/09/25 06:30:13;;;;;;;32.13;17.60;;;14.50;1.00;;;;;;5050005;28;20463;-84
2022/09/25 06:36:03;;;;;;;28.27;15.37;;;14.50;1.00;;;;;;5037242;28;20198;-84
2022/09/25 06:45:13;;;;;;;28.13;16.40;;;14.70;1.00;;;;;;5037208;28;20411;-84
2022/09/25 06:48:12;;;;;;;33.90;18.00;;;14.80;1.00;;;;;;5057120;28;20419;-84
2022/09/25 06:51:31;;;;;;;32.90;17.40;;;14.80;1.00;;;;;;5055937;28;20250;-84
2022/09/25 06:54:24;;;;;;;28.73;16.57;;;14.90;1.00;;;;;;5056057;28;20413;-84
2022/09/25 06:57:12;;;;;;;36.63;17.73;;;14.90;1.00;;;;;;5055739;28;20490;-84
2022/09/25 07:00:00;;;;;;;39.13;19.60;;;14.90;1.00;;;;;;5053018;28;20426;-84
2022/09/25 07:09:09;;;;;;;36.83;18.60;;;15.10;1.00;;;;;;5056389;28;20753;-84
2022/09/25 07:11:59;;;;;;;33.23;18.80;;;15.10;1.00;;;;;;5055784;28;20392;-78
2022/09/25 07:14:52;;;;;;;33.17;18.00;;;15.10;1.00;;;;;;5036473;28;20218;-78
2022/09/25 07:17:18;;;;;;;36.07;18.83;;;15.20;1.00;;;;;;5042207;28;20396;-78
2022/09/25 07:20:21;;;;;;;32.57;17.97;;;15.20;1.00;;;;;;5056334;28;20468;-77
2022/09/25 07:23:30;;;;;;;36.43;19.50;;;15.20;1.00;;;;;;5053645;28;20664;-78
2022/09/25 07:29:18;;;;;;;36.60;18.93;;;15.40;1.00;;;;;;5055568;28;20395;-83
2022/09/25 07:35:30;;;;;;;30.93;18.30;;;15.50;1.00;;;;;;5036145;28;20402;-83
2022/09/25 07:38:29;;;;;;;37.13;19.63;;;15.60;1.00;;;;;;5054537;28;20464;-82
2022/09/25 07:41:24;;;;;;;37.27;18.90;;;15.70;1.00;;;;;;5052135;28;20433;-83
2022/09/25 07:44:00;;;;;;;30.50;17.50;;;15.90;1.00;;;;;;5043633;28;20474;-83
2022/09/25 07:49:48;;;;;;;28.30;17.67;;;16.10;1.00;;;;;;5041817;28;20407;-83
2022/09/25 07:52:48;;;;;;;29.17;17.23;;;16.20;1.00;;;;;;5053497;28;20501;-83
2022/09/25 07:55:48;;;;;;;32.80;17.20;;;16.30;1.00;;;;;;5049847;28;20180;-83
2022/09/25 07:58:18;;;;;;;31.07;17.03;;;16.30;1.00;;;;;;5038376;28;20540;-79
2022/09/25 08:00:44;;;;;;;34.87;18.30;;;16.30;1.00;;;;;;5041631;28;20965;-78
2022/09/25 08:03:19;;;;;;;30.90;17.20;;;16.30;1.00;;;;;;5054658;28;20437;-79
2022/09/25 08:06:10;;;;;;;30.77;17.13;;;16.20;1.00;;;;;;5047450;28;20536;-79
2022/09/25 08:08:36;;;;;;;29.60;17.43;;;16.20;1.00;;;;;;5050407;28;20389;-79
2022/09/25 08:11:05;;;;;;;30.67;17.80;;;16.20;1.00;;;;;;5046876;28;20421;-80
2022/09/25 08:14:13;;;;;;;30.17;17.53;;;16.20;1.00;;;;;;5041199;28;20427;-79
2022/09/25 08:16:48;;;;;;;32.10;16.83;;;16.20;1.00;;;;;;5049635;28;20441;-79
2022/09/25 08:19:19;;;;;;;36.17;18.50;;;16.10;1.00;;;;;;5050687;28;20487;-80
2022/09/25 08:21:49;;;;;;;31.70;18.10;;;16.10;1.00;;;;;;5055080;28;20977;-77
2022/09/25 08:24:18;;;;;;;29.63;18.10;;;16.20;1.00;;;;;;5037705;28;20901;-77
2022/09/25 08:26:49;;;;;;;33.03;18.40;;;16.10;1.00;;;;;;5053466;28;20389;-77
2022/09/25 08:29:24;;;;;;;41.23;18.97;;;16.20;1.00;;;;;;5057980;28;20416;-77
2022/09/25 08:35:18;;;;;;;30.00;17.43;;;16.30;1.00;;;;;;5048007;28;20410;-77
2022/09/25 08:37:48;;;;;;;29.70;17.23;;;16.30;1.00;;;;;;5039687;28;20769;-77
2022/09/25 08:40:23;;;;;;;26.80;16.83;;;16.40;1.00;;;;;;5045510;28;20465;-77
2022/09/25 08:42:55;;;;;;;30.10;17.63;;;16.50;1.00;;;;;;5039852;28;20410;-78
2022/09/25 08:51:49;;;;;;;27.77;17.50;;;16.90;1.00;;;;;;5045199;28;20403;-77
2022/09/25 08:54:26;;;;;;;25.93;15.60;;;17.00;1.00;;;;;;5048519;28;20414;-77
2022/09/25 08:57:00;;;;;;;26.27;15.97;;;17.20;1.00;;;;;;5042313;28;20438;-77
2022/09/25 08:59:51;;;;;;;27.23;14.10;;;17.30;1.00;;;;;;5040915;28;20778;-78
2022/09/25 09:02:44;;;;;;;26.73;14.30;;;17.60;1.00;;;;;;5040960;28;20880;-77
2022/09/25 09:05:36;;;;;;;23.40;14.93;;;17.80;1.00;;;;;;5041709;28;20410;-77
2022/09/25 09:08:24;;;;;;;27.40;14.10;;;18.00;1.00;;;;;;5036113;28;20491;-78
2022/09/25 09:11:42;;;;;;;24.97;14.80;;;18.20;1.00;;;;;;5045873;28;20956;-77
2022/09/25 09:14:53;;;;;;;23.60;14.20;;;18.30;1.00;;;;;;5047471;28;20532;-77
2022/09/25 09:21:26;;;;;;;22.13;13.73;;;18.70;1.00;;;;;;5043239;28;20998;-78
2022/09/25 09:24:06;;;;;;;19.03;12.77;;;18.90;1.00;;;;;;5043387;28;20977;-77
2022/09/25 09:26:42;;;;;;;21.90;14.07;;;18.90;1.00;;;;;;5052277;28;20515;-78
2022/09/25 09:32:49;;;;;;;20.07;12.87;;;18.60;1.00;;;;;;5051160;28;20874;-88
2022/09/25 09:38:45;;;;;;;19.83;13.27;;;18.10;1.00;;;;;;5052696;28;20793;-87
2022/09/25 09:41:49;;;;;;;30.20;12.90;;;17.90;1.00;;;;;;5047695;28;20851;-85
2022/09/25 09:45:08;;;;;;;20.10;13.50;;;17.70;1.00;;;;;;5046428;28;20414;-80
2022/09/25 09:47:59;;;;;;;24.90;14.63;;;17.50;1.00;;;;;;5044368;28;20432;-82
2022/09/25 09:50:54;;;;;;;30.20;14.77;;;17.40;1.00;;;;;;5046825;28;20386;-81
2022/09/25 09:53:47;;;;;;;25.10;14.77;;;17.20;1.00;;;;;;5045958;28;20861;-82
2022/09/25 10:00:01;;;;;;;22.90;15.00;;;17.10;1.00;;;;;;5034586;28;20419;-90
2022/09/25 10:16:24;;;;;;;23.67;14.90;;;17.00;1.00;;;;;;5053754;28;20435;-87
2022/09/25 10:19:42;;;;;;;27.97;15.97;;;17.00;1.00;;;;;;5041595;28;20432;-87
2022/09/25 10:22:22;;;;;;;24.43;15.97;;;17.10;1.00;;;;;;5032985;28;20505;-87
2022/09/25 10:28:36;;;;;;;21.83;13.67;;;17.50;1.00;;;;;;5050864;28;20425;-87
2022/09/25 10:34:27;;;;;;;24.30;12.90;;;17.70;1.00;;;;;;5035414;28;20405;-87
2022/09/25 10:40:34;;;;;;;26.30;13.77;;;18.20;1.00;;;;;;5033997;28;20421;-87
2022/09/25 10:53:18;;;;;;;16.87;10.93;;;18.50;1.00;;;;;;5046602;28;20505;-83
2022/09/25 10:56:31;;;;;;;17.17;11.20;;;18.50;1.00;;;;;;5061699;28;20414;-82
2022/09/25 10:59:02;;;;;;;14.43;10.63;;;18.30;1.00;;;;;;5033456;28;20444;-84
2022/09/25 11:01:43;;;;;;;18.33;11.70;;;18.10;1.00;;;;;;5045054;28;20497;-83
2022/09/25 11:04:16;;;;;;;17.30;11.00;;;18.10;1.00;;;;;;5052646;28;20452;-74
2022/09/25 11:06:46;;;;;;;15.57;10.73;;;17.80;1.00;;;;;;5050029;28;20764;-74
2022/09/25 11:09:16;;;;;;;15.87;10.60;;;17.70;1.00;;;;;;5033142;28;20480;-76
2022/09/25 11:11:52;;;;;;;14.97;9.70;;;17.50;1.00;;;;;;5046596;28;20437;-77
2022/09/25 11:14:27;;;;;;;14.23;9.90;;;17.20;1.00;;;;;;5051995;28;20382;-80
2022/09/25 11:17:31;;;;;;;16.53;9.80;;;17.10;1.00;;;;;;5054431;28;20770;-80
2022/09/25 11:20:16;;;;;;;15.20;9.20;;;16.90;1.00;;;;;;5036346;28;20764;-78
2022/09/25 11:23:06;;;;;;;13.53;8.33;;;16.70;1.00;;;;;;5053791;28;20409;-78
2022/09/25 11:25:54;;;;;;;10.60;6.40;;;16.50;1.00;;;;;;5043355;28;20389;-75
2022/09/25 11:28:48;;;;;;;9.70;7.03;;;16.30;1.00;;;;;;5056390;28;20481;-73
2022/09/25 11:31:36;;;;;;;12.60;7.13;;;16.10;1.00;;;;;;5055153;28;20775;-74
2022/09/25 11:34:37;;;;;;;10.50;7.00;;;16.10;1.00;;;;;;5056190;28;20441;-73
2022/09/25 11:37:20;;;;;;;15.47;6.70;;;16.20;1.00;;;;;;5015773;28;20417;-73
2022/09/25 11:43:07;;;;;;;11.57;5.70;;;16.50;1.00;;;;;;5021937;28;20851;-74
2022/09/25 11:45:46;;;;;;;10.80;5.13;;;16.50;1.00;;;;;;5014170;28;20399;-74
2022/09/25 11:48:26;;;;;;;10.43;4.80;;;16.80;1.00;;;;;;5013973;28;20435;-74
2022/09/25 11:51:12;;;;;;;9.90;4.33;;;17.10;1.00;;;;;;5009542;28;20416;-74
2022/09/25 11:53:51;;;;;;;6.23;3.93;;;17.20;1.00;;;;;;5013280;28;20538;-74
2022/09/25 11:56:32;;;;;;;7.77;3.90;;;17.30;1.00;;;;;;5005076;28;20777;-74
2022/09/25 11:59:21;;;;;;;5.30;3.17;;;17.30;1.00;;;;;;5013724;28;21032;-74
2022/09/25 12:02:31;;;;;;;8.80;3.20;;;17.40;1.00;;;;;;5009594;28;20476;-75
2022/09/25 12:05:28;;;;;;;13.30;2.80;;;17.40;1.00;;;;;;5005080;28;20406;-75
2022/09/25 12:08:14;;;;;;;9.03;2.60;;;17.50;1.00;;;;;;5011825;28;20400;-75
2022/09/25 12:10:54;;;;;;;5.23;2.70;;;17.60;1.00;;;;;;5026439;28;20452;-75
2022/09/25 12:13:44;;;;;;;3.63;2.40;;;17.40;1.00;;;;;;5054123;28;20519;-75
2022/09/25 12:16:40;;;;;;;4.10;2.20;;;17.50;1.00;;;;;;5047435;28;20430;-77
2022/09/25 12:19:41;;;;;;;11.83;2.77;;;17.50;1.00;;;;;;5049453;28;21878;-76
2022/09/25 12:22:20;;;;;;;5.67;2.73;;;17.40;1.00;;;;;;5054322;28;20457;-77
2022/09/25 12:25:18;;;;;;;7.40;2.43;;;17.40;1.00;;;;;;5042147;28;20887;-76
2022/09/25 12:28:30;;;;;;;7.60;2.67;;;17.40;1.00;;;;;;5042710;28;20482;-77
2022/09/25 12:31:08;;;;;;;4.10;2.53;;;17.40;1.00;;;;;;5049314;28;20403;-73
2022/09/25 12:33:55;;;;;;;10.73;3.30;;;17.30;1.00;;;;;;5054353;28;20457;-74
2022/09/25 12:36:35;;;;;;;6.23;2.70;;;17.20;1.00;;;;;;5048873;28;20405;-74
2022/09/25 12:39:25;;;;;;;7.63;2.80;;;17.30;1.00;;;;;;5054802;28;20921;-74
2022/09/25 12:42:15;;;;;;;4.30;2.83;;;17.30;1.00;;;;;;5053270;28;20511;-75
2022/09/25 12:44:46;;;;;;;6.57;2.67;;;17.30;1.00;;;;;;5054610;28;20454;-75
2022/09/25 12:47:49;;;;;;;4.17;2.50;;;17.40;1.00;;;;;;5054975;28;20447;-76
2022/09/25 12:50:30;;;;;;;3.40;2.50;;;17.30;1.00;;;;;;5038662;28;20402;-77
2022/09/25 12:53:13;;;;;;;7.20;2.97;;;17.20;1.00;;;;;;5053888;28;20895;-75
2022/09/25 12:55:49;;;;;;;11.43;2.23;;;17.20;1.00;;;;;;5052937;28;20430;-75
2022/09/25 12:58:42;;;;;;;7.40;2.33;;;17.00;1.00;;;;;;5054490;28;20512;-75
2022/09/25 13:01:20;;;;;;;7.47;2.80;;;17.10;1.00;;;;;;5044600;28;20446;-75
2022/09/25 13:04:08;;;;;;;10.63;2.07;;;17.10;1.00;;;;;;5039438;28;20428;-75
2022/09/25 13:06:39;;;;;;;7.43;2.20;;;17.10;1.00;;;;;;5052690;28;20466;-75
2022/09/25 13:09:16;;;;;;;3.63;1.90;;;17.10;1.00;;;;;;5047893;28;20400;-75
2022/09/25 13:12:04;;;;;;;4.83;2.10;;;16.90;1.00;;;;;;5054008;28;20388;-76
2022/09/25 13:14:41;;;;;;;8.90;2.17;;;16.80;1.00;;;;;;5046039;28;20894;-76
2022/09/25 13:17:11;;;;;;;5.03;1.90;;;16.80;1.00;;;;;;5049294;28;20419;-74
2022/09/25 13:20:27;;;;;;;6.23;2.60;;;16.70;1.00;;;;;;5053561;28;20773;-74
2022/09/25 13:23:39;;;;;;;2.43;2.00;;;16.50;1.00;;;;;;5049018;28;20406;-74
2022/09/25 13:26:12;;;;;;;7.73;2.30;;;16.40;1.00;;;;;;5043565;28;20418;-74
2022/09/25 13:28:59;;;;;;;10.50;3.30;;;16.50;1.00;;;;;;5052749;28;20528;-75
2022/09/25 13:31:28;;;;;;;9.80;2.33;;;16.50;1.00;;;;;;5052155;28;20421;-74
2022/09/25 13:34:03;;;;;;;9.77;3.00;;;16.40;1.00;;;;;;5052661;28;20442;-75
2022/09/25 13:36:50;;;;;;;12.33;2.87;;;16.40;1.00;;;;;;5038314;28;20413;-74
2022/09/25 13:42:45;;;;;;;5.00;3.07;;;16.40;1.00;;;;;;5052166;28;20810;-74
2022/09/25 13:45:16;;;;;;;10.60;3.13;;;16.20;1.00;;;;;;5053559;28;20392;-74
2022/09/25 13:47:50;;;;;;;7.87;3.07;;;16.20;1.00;;;;;;5048131;28;20430;-75
2022/09/25 13:50:26;;;;;;;10.00;3.70;;;16.20;1.00;;;;;;5048830;28;20417;-75
2022/09/25 13:53:16;;;;;;;9.00;3.33;;;16.10;1.00;;;;;;5053396;28;20395;-75
2022/09/25 13:55:55;;;;;;;4.97;3.00;;;16.00;1.00;;;;;;5053702;28;20409;-75
2022/09/25 13:58:28;;;;;;;3.43;2.93;;;16.00;1.00;;;;;;5053436;28;20468;-75
2022/09/25 14:00:57;;;;;;;5.03;2.80;;;15.90;1.00;;;;;;5043056;28;20486;-75
2022/09/25 14:03:47;;;;;;;4.53;3.10;;;15.90;1.00;;;;;;5053437;28;20391;-74
2022/09/25 14:06:21;;;;;;;5.83;2.60;;;15.90;1.00;;;;;;5053345;28;20920;-74
2022/09/25 14:08:48;;;;;;;7.47;3.07;;;15.90;1.00;;;;;;5048486;28;20458;-74
2022/09/25 14:11:25;;;;;;;3.87;2.97;;;15.80;1.00;;;;;;5053506;28;20381;-74
2022/09/25 14:13:55;;;;;;;3.73;2.80;;;15.70;1.00;;;;;;5049584;28;20426;-74
2022/09/25 14:16:30;;;;;;;5.53;3.07;;;15.80;1.00;;;;;;5053198;28;20520;-74
2022/09/25 14:18:57;;;;;;;2.83;2.50;;;15.80;1.00;;;;;;5045227;28;20395;-75
2022/09/25 14:21:25;;;;;;;6.77;2.50;;;15.60;1.00;;;;;;5053303;28;20980;-75
2022/09/25 14:24:30;;;;;;;2.83;2.40;;;15.50;1.00;;;;;;5053440;28;20387;-76
2022/09/25 14:27:00;;;;;;;4.47;2.57;;;15.40;1.00;;;;;;5045344;28;20490;-75
2022/09/25 14:29:46;;;;;;;2.40;2.20;;;15.40;1.00;;;;;;5050942;28;20512;-75
2022/09/25 14:32:37;;;;;;;2.50;2.30;;;15.40;1.00;;;;;;5048809;28;20444;-75
2022/09/25 14:35:03;;;;;;;5.50;2.67;;;15.40;1.00;;;;;;5053313;28;20397;-75
2022/09/25 14:37:53;;;;;;;5.70;2.83;;;15.40;1.00;;;;;;5043655;28;20400;-75
2022/09/25 14:40:32;;;;;;;3.23;2.27;;;15.40;1.00;;;;;;5049567;28;20928;-75
2022/09/25 14:43:40;;;;;;;5.40;2.07;;;15.40;1.00;;;;;;5040298;28;20440;-75
2022/09/25 14:46:18;;;;;;;3.83;1.87;;;15.40;1.00;;;;;;5047096;28;20761;-75
2022/09/25 14:48:53;;;;;;;7.10;2.07;;;15.40;1.00;;;;;;5046804;28;20414;-74
2022/09/25 14:51:39;;;;;;;10.40;2.67;;;15.30;1.00;;;;;;5047638;28;20477;-75
2022/09/25 14:54:08;;;;;;;2.17;1.93;;;15.30;1.00;;;;;;5046218;28;20447;-75
2022/09/25 14:56:36;;;;;;;4.40;2.30;;;15.40;1.00;;;;;;5055242;28;20384;-75
2022/09/25 14:59:12;;;;;;;5.27;2.10;;;15.40;1.00;;;;;;5045214;28;20413;-76
2022/09/25 15:08:38;;;;;;;4.20;1.83;;;15.60;1.00;;;;;;5039336;28;20387;-86
2022/09/25 15:14:26;;;;;;;6.00;3.00;;;15.70;1.00;;;;;;5049200;28;20384;-87
2022/09/25 15:17:22;;;;;;;6.17;2.17;;;15.80;1.00;;;;;;5057434;28;20425;-83
2022/09/25 15:20:06;;;;;;;3.80;1.90;;;15.90;1.00;;;;;;5052778;28;20266;-83
2022/09/25 15:25:57;;;;;;;3.00;1.80;;;16.10;1.00;;;;;;5049221;28;20414;-81
2022/09/25 15:28:25;;;;;;;1.83;1.40;;;16.00;1.00;;;;;;5042284;28;20415;-81
2022/09/25 15:40:57;;;;;;;4.97;2.60;;;16.00;1.00;;;;;;5048811;28;20981;-81
2022/09/25 15:44:06;;;;;;;1.90;1.50;;;15.90;1.00;;;;;;5051210;28;20470;-81
2022/09/25 15:46:47;;;;;;;1.80;1.57;;;16.00;1.00;;;;;;5055164;28;20401;-82
2022/09/25 15:52:52;;;;;;;45.00;23.63;;;15.90;1.00;;;;;;5036764;28;20365;-82
2022/09/25 16:09:19;;;;;;;3.47;2.00;;;15.80;1.00;;;;;;5046195;28;20426;-86
2022/09/25 16:12:30;;;;;;;4.57;1.67;;;15.80;1.00;;;;;;5038858;28;20769;-86
2022/09/25 16:14:57;;;;;;;11.80;3.03;;;15.80;1.00;;;;;;4949352;28;20409;-85
2022/09/25 16:20:44;;;;;;;4.47;1.87;;;15.70;1.00;;;;;;4970224;28;20493;-81
2022/09/25 16:23:31;;;;;;;12.07;1.83;;;15.70;1.00;;;;;;4951775;29;20434;-81
2022/09/25 16:26:37;;;;;;;1.67;1.57;;;15.70;1.00;;;;;;4956301;28;20408;-79
2022/09/25 16:29:26;;;;;;;9.60;1.80;;;15.70;1.00;;;;;;4940393;28;20994;-80
2022/09/25 16:32:31;;;;;;;4.47;1.63;;;15.50;1.00;;;;;;4966427;28;20895;-80
2022/09/25 16:39:13;;;;;;;7.43;1.93;;;15.50;1.00;;;;;;4975070;28;21015;-90
2022/09/25 16:48:36;;;;;;;19.27;2.93;;;15.40;1.00;;;;;;4974540;28;21628;-80
2022/09/25 16:54:29;;;;;;;5.33;2.47;;;15.30;1.00;;;;;;5048452;28;20377;-74
2022/09/25 16:56:57;;;;;;;3.63;1.87;;;15.20;1.00;;;;;;5048913;28;20419;-74
2022/09/25 16:59:26;;;;;;;9.53;2.00;;;15.10;1.00;;;;;;5042565;28;20767;-74
2022/09/25 17:02:23;;;;;;;6.43;1.83;;;15.10;1.00;;;;;;5045932;28;20965;-80
2022/09/25 17:04:49;;;;;;;10.23;1.90;;;15.10;1.00;;;;;;5054962;28;20540;-85
2022/09/25 17:11:07;;;;;;;6.73;2.00;;;15.00;1.00;;;;;;5054078;28;20417;-85
2022/09/25 17:20:16;;;;;;;8.80;2.53;;;14.90;1.00;;;;;;5044366;28;20830;-80
2022/09/25 17:22:43;;;;;;;12.20;2.53;;;14.80;1.00;;;;;;5053200;28;20429;-80
2022/09/25 17:25:43;;;;;;;6.10;2.63;;;14.70;1.00;;;;;;5049878;28;20176;-79
2022/09/25 17:28:14;;;;;;;12.70;2.30;;;14.70;1.00;;;;;;5034049;28;20395;-82
2022/09/25 17:31:19;;;;;;;8.77;2.47;;;14.60;1.00;;;;;;5064920;28;20425;-81
2022/09/25 17:34:23;;;;;;;6.63;2.50;;;14.60;1.00;;;;;;5041950;28;20434;-84
2022/09/25 17:37:19;;;;;;;16.50;3.20;;;14.60;1.00;;;;;;5049087;28;20425;-81
2022/09/25 17:40:26;;;;;;;6.70;2.80;;;14.50;1.00;;;;;;5052907;28;20512;-90
2022/09/25 17:46:17;;;;;;;12.70;2.70;;;14.40;1.00;;;;;;5035880;28;20440;-86
2022/09/25 17:52:05;;;;;;;5.57;2.70;;;14.30;1.00;;;;;;5047742;28;20448;-89
2022/09/25 17:54:37;;;;;;;11.20;3.10;;;14.20;1.00;;;;;;5051867;28;20426;-88
2022/09/25 17:57:49;;;;;;;5.50;2.83;;;14.20;1.00;;;;;;5042407;28;20175;-86
2022/09/25 18:03:30;;;;;;;6.80;2.77;;;14.10;1.00;;;;;;5111763;27;20588;-87
2022/09/25 18:06:20;;;;;;;8.33;2.80;;;14.70;1.00;;;;;;5108839;28;20420;-88
2022/09/25 18:12:08;;;;;;;9.63;3.10;;;14.10;1.00;;;;;;5105072;28;20423;-85
2022/09/25 18:14:55;;;;;;;8.13;3.20;;;14.00;1.00;;;;;;5093790;28;20410;-85
2022/09/25 18:17:21;;;;;;;5.30;2.90;;;14.00;1.00;;;;;;5105862;28;20419;-83
2022/09/25 18:23:26;;;;;;;8.20;3.53;;;14.00;1.00;;;;;;5110407;28;20223;-86
2022/09/25 18:26:20;;;;;;;17.00;2.77;;;14.00;1.00;;;;;;5090050;28;20462;-86
2022/09/25 18:32:20;;;;;;;11.00;3.20;;;14.00;1.00;;;;;;5097792;28;20382;-88
2022/09/25 18:34:46;;;;;;;7.20;3.00;;;13.90;1.00;;;;;;5110580;28;20763;-84
2022/09/25 18:37:12;;;;;;;6.60;3.07;;;13.90;1.00;;;;;;5107538;28;20419;-84
2022/09/25 18:43:25;;;;;;;15.43;2.77;;;13.80;1.00;;;;;;5104072;28;20267;-85
2022/09/25 18:46:02;;;;;;;9.80;3.27;;;13.80;1.00;;;;;;5107288;28;20504;-89
2022/09/25 18:52:02;;;;;;;5.27;3.30;;;13.80;1.00;;;;;;5109654;28;20431;-85